Time;durP1;ratioP1;P1;durP2;ratioP2;P2;SDS_P1;SDS_P2;PMS_P1;PMS_P2;Temp;Humidity;BMP_temperature;BMP_pressure;BME280_temperature;BME280_humidity;BME280_pressure;Samples;Min_cycle;Max_cycle;Signal;HPM_P1;HPM_P2
2023/10/16 00:01:03;;;;;;;13.10;9.67;;;4.80;99.90;;;;;;5009780;28;20205;-62
2023/10/16 00:03:31;;;;;;;17.40;9.17;;;4.80;99.90;;;;;;4977560;28;20211;-62
2023/10/16 00:05:56;;;;;;;11.90;9.40;;;4.80;99.90;;;;;;5012144;28;20196;-62
2023/10/16 00:08:23;;;;;;;16.43;9.17;;;4.90;99.90;;;;;;5016489;28;20841;-62
2023/10/16 00:10:58;;;;;;;20.87;10.17;;;4.90;99.90;;;;;;5027237;28;20180;-62
2023/10/16 00:13:28;;;;;;;18.23;9.37;;;4.80;99.90;;;;;;5014357;28;20205;-62
2023/10/16 00:15:58;;;;;;;16.10;9.53;;;4.90;99.90;;;;;;5013472;28;20598;-62
2023/10/16 00:18:25;;;;;;;13.13;9.03;;;5.00;99.90;;;;;;5014342;28;20345;-62
2023/10/16 00:20:52;;;;;;;14.60;8.77;;;5.00;99.90;;;;;;5033896;28;20186;-62
2023/10/16 00:23:22;;;;;;;10.30;7.47;;;5.00;99.90;;;;;;5016308;28;20202;-62
2023/10/16 00:25:50;;;;;;;12.37;8.40;;;5.00;99.90;;;;;;5029008;28;20555;-62
2023/10/16 00:28:22;;;;;;;13.87;8.37;;;5.10;99.90;;;;;;5014382;28;20231;-62
2023/10/16 00:30:49;;;;;;;15.90;8.63;;;5.10;99.90;;;;;;5013369;28;20173;-62
2023/10/16 00:33:16;;;;;;;12.00;8.77;;;5.00;99.90;;;;;;5013889;28;20575;-62
2023/10/16 00:35:43;;;;;;;13.47;8.87;;;5.00;99.90;;;;;;5021874;28;20232;-62
2023/10/16 00:38:13;;;;;;;14.13;8.67;;;4.90;99.90;;;;;;5008849;28;20536;-62
2023/10/16 00:43:28;;;;;;;12.50;9.00;;;4.90;99.90;;;;;;5014448;28;20218;-62
2023/10/16 00:46:06;;;;;;;8.77;7.70;;;4.80;99.90;;;;;;5013439;28;20195;-62
2023/10/16 00:48:36;;;;;;;11.13;8.60;;;4.70;99.90;;;;;;5013647;28;20290;-62
2023/10/16 00:51:09;;;;;;;13.23;9.53;;;4.70;99.90;;;;;;5013632;28;20171;-62
2023/10/16 00:53:36;;;;;;;12.70;8.80;;;4.60;99.90;;;;;;5023491;28;20214;-62
2023/10/16 00:56:13;;;;;;;16.70;8.63;;;4.60;99.90;;;;;;5030858;28;20164;-62
2023/10/16 00:58:42;;;;;;;15.53;9.87;;;4.60;99.90;;;;;;4996034;28;20188;-62
2023/10/16 01:01:15;;;;;;;12.73;9.40;;;4.60;99.90;;;;;;5005072;28;20202;-62
2023/10/16 01:03:44;;;;;;;13.03;10.10;;;4.60;99.90;;;;;;5013661;28;20208;-62
2023/10/16 01:06:21;;;;;;;15.23;9.63;;;4.50;99.90;;;;;;5013402;28;20191;-62
2023/10/16 01:08:52;;;;;;;16.03;10.00;;;4.60;99.90;;;;;;5013503;28;20297;-62
2023/10/16 01:11:19;;;;;;;12.30;9.80;;;4.50;99.90;;;;;;5022426;28;20183;-62
2023/10/16 01:13:48;;;;;;;16.53;9.83;;;4.50;99.90;;;;;;5012976;28;20566;-62
2023/10/16 01:16:20;;;;;;;17.83;9.77;;;4.60;99.90;;;;;;5013135;28;20539;-62
2023/10/16 01:18:46;;;;;;;18.93;10.60;;;4.50;99.90;;;;;;5013549;28;20555;-62
2023/10/16 01:21:15;;;;;;;13.30;8.80;;;4.50;99.90;;;;;;5013307;28;20279;-62
2023/10/16 01:23:44;;;;;;;11.80;9.37;;;4.60;99.90;;;;;;5013078;28;20246;-62
2023/10/16 01:26:13;;;;;;;15.97;9.73;;;4.70;99.90;;;;;;5015682;28;20211;-62
2023/10/16 01:28:39;;;;;;;12.70;8.83;;;4.60;99.90;;;;;;5033117;28;20198;-62
2023/10/16 01:31:05;;;;;;;13.23;8.77;;;4.60;99.90;;;;;;5016802;28;20176;-62
2023/10/16 01:33:30;;;;;;;11.00;8.63;;;4.60;99.90;;;;;;5014686;28;20200;-62
2023/10/16 01:35:56;;;;;;;16.30;9.20;;;4.70;99.90;;;;;;5014485;28;20217;-62
2023/10/16 01:38:24;;;;;;;14.17;9.73;;;4.70;99.90;;;;;;5017441;28;20262;-62
2023/10/16 01:41:13;;;;;;;11.37;8.33;;;4.70;99.90;;;;;;5016756;28;20195;-62
2023/10/16 01:43:40;;;;;;;15.20;9.20;;;4.70;99.90;;;;;;5017753;28;20544;-62
2023/10/16 01:46:13;;;;;;;14.13;9.63;;;4.70;99.90;;;;;;5007582;28;20179;-62
2023/10/16 01:48:44;;;;;;;10.77;8.77;;;4.70;99.90;;;;;;5017124;28;20257;-62
2023/10/16 01:51:11;;;;;;;13.60;9.17;;;4.70;99.90;;;;;;5000556;28;20263;-62
2023/10/16 01:53:39;;;;;;;16.70;8.97;;;4.70;99.90;;;;;;5036783;28;20195;-62
2023/10/16 01:56:12;;;;;;;12.17;9.03;;;4.70;99.90;;;;;;5032338;28;20215;-62
2023/10/16 01:58:41;;;;;;;13.60;9.87;;;4.70;99.90;;;;;;5017355;28;20164;-62
2023/10/16 02:01:08;;;;;;;15.83;9.37;;;4.60;99.90;;;;;;5016086;28;20633;-62
2023/10/16 02:03:34;;;;;;;11.73;8.67;;;4.50;99.90;;;;;;4999305;28;20767;-62
2023/10/16 02:06:00;;;;;;;14.23;9.27;;;4.40;99.90;;;;;;5016540;28;20211;-62
2023/10/16 02:08:25;;;;;;;14.30;8.87;;;4.40;99.90;;;;;;5025993;28;20289;-63
2023/10/16 02:10:52;;;;;;;12.53;10.07;;;4.30;99.90;;;;;;5016556;28;20269;-62
2023/10/16 02:13:18;;;;;;;12.93;9.03;;;4.30;99.90;;;;;;5016456;28;20693;-62
2023/10/16 02:15:44;;;;;;;13.43;10.47;;;4.30;99.90;;;;;;5015662;28;20207;-62
2023/10/16 02:18:27;;;;;;;16.13;9.80;;;4.30;99.90;;;;;;5016660;28;20203;-63
2023/10/16 02:20:53;;;;;;;15.57;10.17;;;4.20;99.90;;;;;;5016436;28;20175;-62
2023/10/16 02:23:19;;;;;;;13.10;9.47;;;4.20;99.90;;;;;;5016592;28;20204;-62
2023/10/16 02:25:45;;;;;;;11.73;9.10;;;4.20;99.90;;;;;;5024142;28;20195;-62
2023/10/16 02:28:19;;;;;;;11.93;9.73;;;4.10;99.90;;;;;;5016772;28;20282;-62
2023/10/16 02:30:49;;;;;;;9.87;8.73;;;4.10;99.90;;;;;;5015547;28;20168;-62
2023/10/16 02:35:48;;;;;;;11.43;9.30;;;4.20;99.90;;;;;;5030583;28;20683;-62
2023/10/16 02:38:23;;;;;;;13.70;9.73;;;4.20;99.90;;;;;;5016156;28;20644;-62
2023/10/16 02:40:52;;;;;;;12.67;9.97;;;4.20;99.90;;;;;;4998434;28;20636;-62
2023/10/16 02:43:20;;;;;;;15.20;9.80;;;4.10;99.90;;;;;;5016232;28;20204;-62
2023/10/16 02:45:47;;;;;;;12.77;9.87;;;4.10;99.90;;;;;;5015740;28;20218;-62
2023/10/16 02:48:18;;;;;;;18.33;10.53;;;4.10;99.90;;;;;;5016031;28;20203;-62
2023/10/16 02:50:49;;;;;;;12.77;9.40;;;4.00;99.90;;;;;;5024834;28;20682;-62
2023/10/16 02:53:17;;;;;;;13.67;9.83;;;4.00;99.90;;;;;;5029742;28;20566;-62
2023/10/16 02:55:44;;;;;;;12.50;8.87;;;4.00;99.90;;;;;;5015662;28;20199;-62
2023/10/16 02:58:11;;;;;;;13.27;9.57;;;4.00;99.90;;;;;;5015879;28;20242;-62
2023/10/16 03:00:43;;;;;;;12.20;9.37;;;4.00;99.90;;;;;;5003967;28;20179;-62
2023/10/16 03:03:10;;;;;;;11.07;9.00;;;4.00;99.90;;;;;;5035943;28;20281;-61
2023/10/16 03:05:35;;;;;;;13.67;9.30;;;4.00;99.90;;;;;;5020078;28;20676;-61
2023/10/16 03:08:01;;;;;;;13.13;9.40;;;3.90;99.90;;;;;;5015878;28;20246;-61
2023/10/16 03:10:30;;;;;;;14.00;10.03;;;3.90;99.90;;;;;;5015308;28;20798;-61
2023/10/16 03:12:59;;;;;;;16.67;10.47;;;3.90;99.90;;;;;;5015411;28;20208;-61
2023/10/16 03:15:29;;;;;;;14.30;9.47;;;4.00;99.90;;;;;;5015108;28;20195;-62
2023/10/16 03:17:55;;;;;;;16.07;10.10;;;4.10;99.90;;;;;;5001157;28;20188;-62
2023/10/16 03:20:23;;;;;;;12.70;9.70;;;4.10;99.90;;;;;;5015935;28;20561;-62
2023/10/16 03:22:50;;;;;;;18.33;10.27;;;4.00;99.90;;;;;;4998372;28;20200;-62
2023/10/16 03:28:05;;;;;;;15.93;10.50;;;4.00;99.90;;;;;;5015813;28;20194;-61
2023/10/16 03:30:31;;;;;;;13.10;10.20;;;4.00;99.90;;;;;;5015359;28;20721;-61
2023/10/16 03:32:59;;;;;;;16.93;9.97;;;3.90;99.90;;;;;;5016429;28;20191;-61
2023/10/16 03:35:31;;;;;;;14.57;11.30;;;3.90;99.90;;;;;;5006657;28;20176;-62
2023/10/16 03:38:20;;;;;;;17.07;10.87;;;4.00;99.90;;;;;;5013948;28;20160;-62
2023/10/16 03:40:50;;;;;;;15.07;10.43;;;3.80;99.90;;;;;;5015498;28;20183;-63
2023/10/16 03:43:18;;;;;;;16.73;10.60;;;3.80;99.90;;;;;;5015884;28;20200;-62
2023/10/16 03:45:44;;;;;;;16.23;10.33;;;3.80;99.90;;;;;;5015196;28;20229;-61
2023/10/16 03:48:10;;;;;;;16.07;11.03;;;3.80;99.90;;;;;;5014951;28;20203;-61
2023/10/16 03:50:42;;;;;;;17.67;11.03;;;3.80;99.90;;;;;;5014678;28;20172;-61
2023/10/16 03:53:08;;;;;;;14.87;10.27;;;3.70;99.90;;;;;;4996585;28;20264;-61
2023/10/16 03:55:44;;;;;;;14.67;11.27;;;3.70;99.90;;;;;;5014848;28;20176;-61
2023/10/16 03:58:11;;;;;;;14.90;10.90;;;3.70;99.90;;;;;;5030257;28;20291;-62
2023/10/16 04:00:53;;;;;;;16.07;10.67;;;3.70;99.90;;;;;;5014871;28;20181;-62
2023/10/16 04:03:23;;;;;;;21.70;11.80;;;3.70;99.90;;;;;;5015010;28;20207;-62
2023/10/16 04:05:50;;;;;;;15.00;10.93;;;3.60;99.90;;;;;;5014425;28;20188;-62
2023/10/16 04:08:18;;;;;;;18.03;11.57;;;3.60;99.90;;;;;;5014894;28;20191;-62
2023/10/16 04:10:48;;;;;;;13.90;10.97;;;3.60;99.90;;;;;;5014590;28;20203;-62
2023/10/16 04:13:16;;;;;;;16.40;11.43;;;3.60;99.90;;;;;;5015138;28;20198;-62
2023/10/16 04:26:47;;;;;;;18.73;11.87;;;3.70;99.90;;;;;;5014530;28;20251;-62
2023/10/16 04:31:56;;;;;;;16.40;11.63;;;3.70;99.90;;;;;;5014632;28;20172;-62
2023/10/16 04:50:15;;;;;;;19.27;12.17;;;3.60;99.90;;;;;;5014119;28;20262;-62
2023/10/16 05:13:17;;;;;;;18.20;12.13;;;3.70;99.90;;;;;;5033973;28;20190;-64
2023/10/16 06:14:12;;;;;;;12.30;10.77;;;3.30;99.90;;;;;;5033046;28;20258;-61
2023/10/16 06:16:46;;;;;;;12.10;9.50;;;3.30;99.90;;;;;;5017691;28;20229;-61
2023/10/16 06:19:17;;;;;;;13.80;10.17;;;3.40;99.90;;;;;;5036829;28;20214;-61
2023/10/16 06:21:47;;;;;;;13.47;10.10;;;3.40;99.90;;;;;;5036298;28;20250;-61
2023/10/16 06:24:35;;;;;;;13.57;10.93;;;3.50;99.90;;;;;;5036626;28;20574;-61
2023/10/16 06:27:11;;;;;;;13.70;10.83;;;3.60;99.90;;;;;;5018704;28;20189;-61
2023/10/16 06:29:49;;;;;;;22.60;12.27;;;3.60;99.90;;;;;;5036196;28;20199;-61
2023/10/16 06:32:20;;;;;;;18.13;12.43;;;3.70;99.90;;;;;;5036199;28;20156;-61
2023/10/16 06:34:57;;;;;;;16.37;11.10;;;3.80;99.90;;;;;;5036559;28;20191;-61
2023/10/16 06:37:23;;;;;;;19.63;12.30;;;3.90;99.90;;;;;;5035951;28;20163;-61
2023/10/16 06:39:54;;;;;;;20.53;13.57;;;3.90;99.90;;;;;;5018319;28;20183;-62
2023/10/16 06:42:23;;;;;;;21.00;12.60;;;4.00;99.90;;;;;;5036321;28;20179;-62
2023/10/16 06:44:51;;;;;;;19.10;13.57;;;4.00;99.90;;;;;;5036033;28;20226;-62
2023/10/16 06:47:17;;;;;;;19.80;12.93;;;4.20;99.90;;;;;;5035977;28;20202;-62
2023/10/16 06:49:43;;;;;;;23.00;13.67;;;4.30;99.90;;;;;;5037081;28;20565;-62
2023/10/16 06:52:17;;;;;;;23.53;13.90;;;4.20;99.90;;;;;;5035873;28;20245;-62
2023/10/16 06:54:44;;;;;;;21.77;13.30;;;4.20;99.90;;;;;;5035907;28;20238;-61
2023/10/16 06:57:13;;;;;;;25.83;14.40;;;4.30;99.90;;;;;;5035897;28;20178;-62
2023/10/16 06:59:46;;;;;;;23.17;14.17;;;4.30;99.90;;;;;;5035748;28;20187;-62
2023/10/16 07:02:15;;;;;;;22.60;14.00;;;4.20;99.90;;;;;;5035691;28;20182;-62
2023/10/16 07:04:44;;;;;;;26.27;15.03;;;4.30;99.90;;;;;;5035665;28;20215;-62
2023/10/16 07:07:14;;;;;;;25.80;14.40;;;4.30;99.90;;;;;;5017700;28;20234;-62
2023/10/16 07:09:47;;;;;;;30.47;15.30;;;4.30;99.90;;;;;;5035813;28;20191;-62
2023/10/16 07:12:17;;;;;;;28.60;15.27;;;4.30;99.90;;;;;;5035796;28;20190;-62
2023/10/16 07:14:57;;;;;;;23.93;14.23;;;4.30;99.90;;;;;;5035490;28;20199;-62
2023/10/16 07:17:26;;;;;;;22.27;14.40;;;4.40;99.90;;;;;;5035381;28;20163;-62
2023/10/16 07:19:58;;;;;;;21.30;14.07;;;4.60;99.90;;;;;;5035447;28;20246;-62
2023/10/16 07:22:31;;;;;;;21.77;14.97;;;4.70;99.90;;;;;;5035346;28;20298;-62
2023/10/16 07:24:57;;;;;;;27.87;14.80;;;4.70;99.90;;;;;;5035243;28;20234;-62
2023/10/16 07:27:31;;;;;;;25.63;14.93;;;4.70;99.90;;;;;;5034386;28;20158;-62
2023/10/16 07:29:56;;;;;;;24.63;14.40;;;4.80;99.90;;;;;;5035134;28;20207;-62
2023/10/16 07:32:23;;;;;;;25.60;14.90;;;4.90;99.90;;;;;;5035951;28;20642;-61
2023/10/16 07:34:49;;;;;;;21.37;13.93;;;4.90;99.90;;;;;;5035073;28;20245;-60
2023/10/16 07:37:15;;;;;;;21.03;14.10;;;4.90;99.90;;;;;;5035051;28;20167;-62
2023/10/16 07:39:40;;;;;;;20.80;14.37;;;4.90;99.90;;;;;;5035638;28;20163;-63
2023/10/16 07:42:10;;;;;;;28.83;15.47;;;4.80;99.90;;;;;;5035038;28;20206;-61
2023/10/16 07:44:36;;;;;;;20.63;15.00;;;4.90;99.90;;;;;;5050140;28;20198;-61
2023/10/16 07:47:01;;;;;;;20.23;13.63;;;4.80;99.90;;;;;;5034829;28;20294;-61
2023/10/16 07:49:28;;;;;;;21.00;13.40;;;5.00;99.90;;;;;;5017228;28;20572;-61
2023/10/16 07:51:56;;;;;;;21.80;14.03;;;5.00;99.90;;;;;;5016757;28;20179;-60
2023/10/16 07:54:23;;;;;;;22.43;15.23;;;5.10;99.90;;;;;;5034682;28;20313;-61
2023/10/16 07:56:52;;;;;;;27.47;15.67;;;5.20;99.90;;;;;;5034918;28;20206;-61
2023/10/16 07:59:20;;;;;;;22.80;14.03;;;5.30;99.90;;;;;;5016906;28;20182;-60
2023/10/16 08:01:52;;;;;;;19.13;13.63;;;5.30;99.90;;;;;;5017935;28;20559;-62
2023/10/16 08:06:47;;;;;;;25.27;13.30;;;5.50;99.90;;;;;;5034836;28;20186;-61
2023/10/16 08:09:29;;;;;;;20.20;12.40;;;5.50;99.90;;;;;;5034671;28;20580;-60
2023/10/16 08:11:58;;;;;;;20.60;13.83;;;5.50;99.90;;;;;;5034382;28;20183;-61
2023/10/16 08:14:26;;;;;;;19.50;13.37;;;5.50;99.90;;;;;;5034571;28;20195;-61
2023/10/16 08:16:58;;;;;;;21.73;13.70;;;5.60;99.90;;;;;;5034272;28;20221;-60
2023/10/16 08:19:31;;;;;;;18.60;13.70;;;5.60;99.90;;;;;;5034820;28;20164;-63
2023/10/16 08:21:58;;;;;;;18.80;13.40;;;5.70;99.90;;;;;;5034531;28;20155;-62
2023/10/16 08:24:24;;;;;;;20.47;13.03;;;5.70;99.90;;;;;;5034068;28;20290;-62
2023/10/16 08:26:54;;;;;;;21.07;13.20;;;5.80;99.90;;;;;;5035537;28;20523;-62
2023/10/16 08:29:20;;;;;;;25.47;12.57;;;5.80;99.90;;;;;;5016292;28;20272;-62
2023/10/16 08:31:55;;;;;;;22.60;11.67;;;5.90;99.90;;;;;;5034299;28;20662;-62
2023/10/16 08:34:21;;;;;;;21.00;13.17;;;6.10;99.90;;;;;;5033980;28;20286;-62
2023/10/16 08:36:50;;;;;;;17.13;12.57;;;6.20;99.90;;;;;;5033764;28;20254;-62
2023/10/16 08:39:21;;;;;;;19.50;12.70;;;6.20;99.90;;;;;;5034157;28;20179;-62
2023/10/16 08:44:18;;;;;;;15.10;11.43;;;6.40;99.90;;;;;;5033758;28;20199;-61
2023/10/16 08:49:23;;;;;;;16.53;11.50;;;6.40;99.90;;;;;;5032182;28;20195;-61
2023/10/16 08:52:04;;;;;;;18.57;12.67;;;6.50;99.90;;;;;;5032558;28;20160;-61
2023/10/16 08:55:14;;;;;;;19.53;12.47;;;6.50;99.90;;;;;;5015895;28;20223;-61
2023/10/16 08:57:22;;;;;;;19.03;12.23;;;6.50;99.90;;;;;;5030787;28;20187;-61
2023/10/16 08:59:52;;;;;;;17.90;11.57;;;6.60;99.90;;;;;;5033651;28;20183;-61
2023/10/16 09:02:20;;;;;;;20.03;12.27;;;6.70;99.90;;;;;;5033534;28;20188;-62
2023/10/16 09:04:52;;;;;;;18.30;11.47;;;6.70;99.90;;;;;;5033320;28;20638;-61
2023/10/16 09:07:19;;;;;;;18.63;10.77;;;6.70;99.90;;;;;;5033393;28;20175;-61
2023/10/16 09:09:48;;;;;;;19.07;12.33;;;6.80;99.90;;;;;;5033467;28;20201;-61
2023/10/16 09:12:24;;;;;;;16.40;11.67;;;6.90;99.90;;;;;;5033365;28;20197;-61
2023/10/16 09:14:53;;;;;;;23.13;12.17;;;7.10;99.90;;;;;;5033308;28;20659;-61
2023/10/16 09:17:24;;;;;;;18.17;11.93;;;7.20;99.90;;;;;;5033573;28;20187;-62
2023/10/16 09:19:50;;;;;;;17.57;11.40;;;7.20;99.90;;;;;;5033335;28;20163;-61
2023/10/16 09:22:17;;;;;;;16.30;11.63;;;7.30;99.90;;;;;;5032991;28;20254;-61
2023/10/16 09:24:46;;;;;;;19.07;12.17;;;7.20;99.90;;;;;;5033296;28;20199;-61
2023/10/16 09:27:22;;;;;;;18.23;10.90;;;7.30;99.90;;;;;;5033603;28;20182;-63
2023/10/16 09:29:55;;;;;;;15.40;10.67;;;7.40;99.90;;;;;;5015538;28;20198;-62
2023/10/16 09:32:26;;;;;;;21.57;10.90;;;7.30;99.90;;;;;;5033297;28;20217;-61
2023/10/16 09:35:04;;;;;;;18.03;10.10;;;7.40;99.90;;;;;;5033137;28;20195;-61
2023/10/16 09:37:34;;;;;;;18.47;11.10;;;7.50;99.90;;;;;;5033143;28;20156;-61
2023/10/16 09:40:19;;;;;;;18.37;10.80;;;7.60;99.90;;;;;;5015558;28;20179;-61
2023/10/16 09:43:05;;;;;;;20.63;10.53;;;7.70;99.90;;;;;;5033627;28;20156;-61
2023/10/16 09:45:35;;;;;;;15.90;11.00;;;7.80;99.90;;;;;;5033321;28;20175;-61
2023/10/16 09:48:19;;;;;;;15.87;10.57;;;7.90;99.90;;;;;;5033335;28;20202;-61
2023/10/16 09:50:46;;;;;;;18.10;10.63;;;8.00;99.90;;;;;;5034670;28;20163;-61
2023/10/16 09:53:13;;;;;;;19.60;10.00;;;8.20;99.90;;;;;;5036981;28;20191;-61
2023/10/16 09:55:44;;;;;;;14.83;10.40;;;8.30;99.90;;;;;;5037349;28;20627;-61
2023/10/16 09:58:11;;;;;;;17.23;10.67;;;8.30;99.90;;;;;;5037379;28;20190;-61
2023/10/16 10:00:44;;;;;;;18.50;10.93;;;8.40;99.90;;;;;;5037051;28;20163;-62
2023/10/16 10:03:12;;;;;;;18.60;11.37;;;8.40;99.90;;;;;;5036819;28;20294;-61
2023/10/16 10:06:20;;;;;;;21.87;12.43;;;8.40;99.90;;;;;;5037804;28;20194;-62
2023/10/16 10:11:44;;;;;;;27.03;12.47;;;8.70;99.90;;;;;;5037175;28;20179;-62
2023/10/16 10:16:51;;;;;;;22.67;13.50;;;9.00;99.90;;;;;;5037062;28;20200;-62
2023/10/16 10:19:24;;;;;;;20.37;12.20;;;9.20;99.90;;;;;;5037516;28;20659;-62
2023/10/16 10:21:53;;;;;;;16.13;11.00;;;9.40;99.90;;;;;;5037242;28;20533;-62
2023/10/16 10:24:24;;;;;;;15.87;10.50;;;9.60;99.90;;;;;;5037322;28;20265;-62
2023/10/16 10:26:55;;;;;;;18.37;11.17;;;9.80;99.90;;;;;;5036725;28;20210;-62
2023/10/16 10:29:22;;;;;;;16.17;10.73;;;10.10;99.90;;;;;;5036467;28;20694;-62
2023/10/16 10:31:50;;;;;;;15.60;10.07;;;10.30;99.90;;;;;;5036794;28;20175;-62
2023/10/16 10:34:23;;;;;;;17.63;10.93;;;10.40;99.90;;;;;;5036482;28;20679;-62
2023/10/16 10:36:53;;;;;;;15.57;11.00;;;10.40;99.90;;;;;;5036372;28;20222;-63
2023/10/16 10:39:21;;;;;;;20.63;10.70;;;10.50;99.90;;;;;;5036195;28;20233;-61
2023/10/16 10:42:03;;;;;;;14.77;10.13;;;10.60;99.90;;;;;;5036236;28;20258;-61
2023/10/16 10:44:30;;;;;;;14.17;9.07;;;10.80;99.90;;;;;;5036310;28;20198;-62
2023/10/16 10:47:00;;;;;;;16.20;9.67;;;10.70;99.90;;;;;;5036201;28;20258;-62
2023/10/16 10:49:33;;;;;;;14.38;9.93;;;10.60;99.90;;;;;;5018501;28;20207;-61
2023/10/16 10:52:07;;;;;;;15.32;9.80;;;10.70;99.90;;;;;;5036195;28;20254;-62
2023/10/16 10:54:42;;;;;;;15.98;9.68;;;11.00;99.90;;;;;;5035892;28;20265;-61
2023/10/16 10:57:33;;;;;;;14.57;9.10;;;11.10;99.90;;;;;;5035820;28;20181;-61
2023/10/16 11:02:51;;;;;;;7.82;5.65;;;11.70;99.90;;;;;;5035923;28;20159;-61
2023/10/16 11:05:25;;;;;;;8.25;5.53;;;12.00;99.90;;;;;;5035673;28;20198;-61
2023/10/16 11:10:46;;;;;;;10.63;5.30;;;12.40;99.90;;;;;;5035588;28;20195;-62
2023/10/16 11:13:13;;;;;;;8.27;6.15;;;12.30;99.90;;;;;;5035521;28;20366;-61
2023/10/16 11:15:52;;;;;;;9.60;6.07;;;12.10;99.90;;;;;;5036078;28;20167;-61
2023/10/16 11:18:19;;;;;;;13.43;6.05;;;12.10;99.90;;;;;;5036511;28;20234;-61
2023/10/16 11:20:54;;;;;;;10.63;6.97;;;12.00;99.90;;;;;;5035630;28;20175;-61
2023/10/16 11:23:22;;;;;;;9.27;5.85;;;12.10;99.90;;;;;;5035277;28;20194;-61
2023/10/16 11:25:52;;;;;;;9.40;5.55;;;12.30;99.90;;;;;;5035378;28;20171;-61
2023/10/16 11:28:28;;;;;;;8.77;5.22;;;12.40;99.90;;;;;;5035253;28;20203;-61
2023/10/16 11:30:56;;;;;;;7.85;5.25;;;12.40;99.90;;;;;;5035533;28;20159;-62
2023/10/16 11:33:44;;;;;;;10.15;5.80;;;12.50;99.90;;;;;;5035057;28;20262;-62
2023/10/16 11:36:13;;;;;;;10.20;6.03;;;12.40;99.90;;;;;;5035129;28;20154;-62
2023/10/16 11:38:40;;;;;;;11.27;5.85;;;12.40;99.90;;;;;;5034056;28;20191;-62
2023/10/16 11:41:11;;;;;;;7.57;5.28;;;12.40;99.90;;;;;;5034987;28;20250;-62
2023/10/16 11:43:47;;;;;;;6.50;4.80;;;12.40;99.90;;;;;;5035078;28;20603;-62
2023/10/16 11:46:28;;;;;;;10.95;5.25;;;12.40;99.90;;;;;;5017101;28;20179;-62
2023/10/16 11:49:17;;;;;;;7.97;4.63;;;12.10;99.90;;;;;;5017116;28;20206;-62
2023/10/16 11:51:55;;;;;;;6.60;4.80;;;12.40;99.90;;;;;;5035375;28;20559;-62
2023/10/16 11:54:25;;;;;;;7.72;4.80;;;12.40;99.90;;;;;;5016819;28;20203;-63
2023/10/16 11:56:55;;;;;;;6.60;4.30;;;12.50;99.90;;;;;;5035662;28;20572;-63
2023/10/16 11:59:21;;;;;;;5.40;4.20;;;12.60;99.90;;;;;;5034706;28;20273;-63
2023/10/16 12:01:51;;;;;;;11.75;4.65;;;12.80;99.90;;;;;;5034971;28;20258;-63
2023/10/16 12:04:20;;;;;;;7.32;4.72;;;13.00;99.90;;;;;;5034601;28;20561;-63
2023/10/16 12:06:51;;;;;;;6.90;4.60;;;12.80;99.90;;;;;;5034513;28;20175;-63
2023/10/16 12:09:20;;;;;;;8.77;4.72;;;12.60;99.90;;;;;;5034121;28;20199;-62
2023/10/16 12:11:50;;;;;;;5.22;4.68;;;12.40;99.90;;;;;;5034908;28;20253;-62
2023/10/16 12:14:19;;;;;;;5.85;4.70;;;12.20;99.90;;;;;;5033801;28;20190;-62
2023/10/16 12:16:46;;;;;;;7.93;5.20;;;12.00;99.90;;;;;;5034612;28;20195;-63
2023/10/16 12:19:14;;;;;;;7.15;4.70;;;11.90;99.90;;;;;;5034493;28;20218;-62
2023/10/16 12:21:40;;;;;;;8.15;5.32;;;11.80;99.90;;;;;;5034482;28;20194;-62
2023/10/16 12:24:07;;;;;;;9.05;5.40;;;11.90;99.90;;;;;;5033797;28;20194;-62
2023/10/16 12:26:34;;;;;;;11.55;4.80;;;12.10;99.90;;;;;;5034108;28;20213;-63
2023/10/16 12:29:00;;;;;;;7.30;4.53;;;12.30;99.90;;;;;;5033988;28;20205;-62
2023/10/16 12:31:26;;;;;;;5.97;4.70;;;12.40;99.90;;;;;;5034158;28;20174;-62
2023/10/16 12:33:53;;;;;;;7.10;4.57;;;12.10;99.90;;;;;;5016236;28;20202;-62
2023/10/16 12:36:19;;;;;;;7.05;4.38;;;11.80;99.90;;;;;;5033907;28;20174;-62
2023/10/16 12:38:45;;;;;;;10.80;5.00;;;11.70;99.90;;;;;;5033618;28;20178;-62
2023/10/16 12:41:11;;;;;;;9.27;4.47;;;11.60;99.90;;;;;;5034431;28;20171;-62
2023/10/16 12:43:36;;;;;;;6.50;4.22;;;11.50;99.90;;;;;;5016132;28;20249;-62
2023/10/16 12:46:04;;;;;;;6.45;4.35;;;11.30;99.90;;;;;;5033797;28;20179;-62
2023/10/16 12:48:30;;;;;;;5.38;4.03;;;11.30;99.90;;;;;;5033726;28;20283;-62
2023/10/16 12:51:07;;;;;;;4.82;3.97;;;11.30;99.90;;;;;;5033734;28;20222;-62
2023/10/16 12:53:33;;;;;;;7.03;4.55;;;11.30;99.90;;;;;;5027377;28;20269;-62
2023/10/16 12:55:58;;;;;;;6.60;4.70;;;11.20;99.90;;;;;;5033968;28;20257;-62
2023/10/16 12:58:26;;;;;;;6.78;4.30;;;11.20;99.90;;;;;;5033831;28;20182;-62
2023/10/16 13:00:52;;;;;;;5.25;4.00;;;11.10;99.90;;;;;;5015904;28;20183;-62
2023/10/16 13:03:20;;;;;;;7.18;4.18;;;11.10;99.90;;;;;;5033783;28;20206;-62
2023/10/16 13:05:48;;;;;;;6.28;4.40;;;11.10;99.90;;;;;;5033436;28;20273;-62
2023/10/16 13:08:14;;;;;;;5.90;4.70;;;11.10;99.90;;;;;;5033415;28;20195;-62
2023/10/16 13:10:40;;;;;;;7.15;4.18;;;11.10;99.90;;;;;;5033317;28;20550;-63
2023/10/16 13:13:05;;;;;;;9.23;5.38;;;11.10;99.90;;;;;;5033694;28;20191;-62
2023/10/16 13:15:31;;;;;;;6.93;4.70;;;11.10;99.90;;;;;;5033636;28;20179;-62
2023/10/16 13:18:00;;;;;;;9.40;4.53;;;11.10;99.90;;;;;;5015983;28;20233;-62
2023/10/16 13:20:29;;;;;;;7.38;4.78;;;11.10;99.90;;;;;;5033705;28;20203;-62
2023/10/16 13:22:56;;;;;;;7.43;4.20;;;11.10;99.90;;;;;;5033266;28;20225;-62
2023/10/16 13:25:31;;;;;;;5.43;4.40;;;11.20;99.90;;;;;;5032178;28;20179;-62
2023/10/16 13:27:58;;;;;;;9.65;4.78;;;11.20;99.90;;;;;;5033165;28;20209;-62
2023/10/16 13:30:25;;;;;;;6.28;4.80;;;11.30;99.90;;;;;;5033742;28;20510;-62
2023/10/16 13:32:52;;;;;;;7.28;4.90;;;11.30;99.90;;;;;;5015481;28;20175;-62
2023/10/16 13:35:20;;;;;;;5.65;4.20;;;11.40;99.90;;;;;;5015531;28;20171;-62
2023/10/16 13:37:52;;;;;;;5.63;4.30;;;11.40;99.90;;;;;;5015778;28;20547;-62
2023/10/16 13:40:22;;;;;;;9.40;4.63;;;11.40;99.90;;;;;;5015090;28;20731;-62
2023/10/16 13:42:51;;;;;;;9.70;4.63;;;11.40;99.90;;;;;;5033446;28;20662;-62
2023/10/16 13:45:19;;;;;;;5.55;4.68;;;11.50;99.90;;;;;;5033151;28;20164;-63
2023/10/16 13:47:45;;;;;;;6.93;3.97;;;11.50;99.90;;;;;;5015250;28;20179;-63
2023/10/16 13:50:16;;;;;;;6.03;4.50;;;11.60;99.90;;;;;;5015351;28;20171;-62
2023/10/16 13:52:45;;;;;;;6.10;4.35;;;11.60;99.90;;;;;;5033037;28;20175;-62
2023/10/16 13:55:12;;;;;;;10.70;4.97;;;11.60;99.90;;;;;;5015065;28;20656;-62
2023/10/16 13:57:42;;;;;;;7.70;4.60;;;11.70;99.90;;;;;;5015343;28;20233;-62
2023/10/16 14:02:57;;;;;;;6.13;4.53;;;11.80;99.90;;;;;;5033241;28;20246;-63
2023/10/16 14:05:23;;;;;;;6.22;4.53;;;11.90;99.90;;;;;;5032762;28;20207;-62
2023/10/16 14:07:53;;;;;;;5.75;4.18;;;12.00;99.90;;;;;;5033120;28;20167;-62
2023/10/16 14:10:21;;;;;;;5.22;4.18;;;12.10;99.90;;;;;;5033049;28;20213;-63
2023/10/16 14:12:58;;;;;;;7.68;4.80;;;12.10;99.90;;;;;;5032829;28;20233;-62
2023/10/16 14:15:26;;;;;;;6.13;4.57;;;12.20;99.90;;;;;;5033459;28;20507;-63
2023/10/16 14:17:53;;;;;;;7.28;4.75;;;12.20;99.90;;;;;;5033118;28;20267;-63
2023/10/16 14:20:34;;;;;;;6.28;4.57;;;12.20;99.90;;;;;;5032897;28;20186;-63
2023/10/16 14:23:03;;;;;;;6.88;4.57;;;12.20;99.90;;;;;;5032700;28;20230;-63
2023/10/16 14:25:32;;;;;;;7.22;4.65;;;12.10;99.90;;;;;;5032706;28;20654;-63
2023/10/16 14:28:11;;;;;;;10.55;5.47;;;12.10;99.90;;;;;;5032734;28;20211;-63
2023/10/16 14:30:39;;;;;;;5.70;4.38;;;12.10;99.90;;;;;;5032749;28;20158;-63
2023/10/16 14:33:06;;;;;;;6.32;4.28;;;12.00;99.90;;;;;;5032664;28;20203;-62
2023/10/16 14:35:37;;;;;;;5.10;4.60;;;11.90;99.90;;;;;;5033211;28;20174;-61
2023/10/16 14:38:04;;;;;;;8.50;5.00;;;11.90;99.90;;;;;;5035923;28;20178;-61
2023/10/16 14:40:30;;;;;;;8.30;5.45;;;11.90;99.90;;;;;;5035893;28;20191;-62
2023/10/16 14:42:55;;;;;;;7.47;5.00;;;11.80;99.90;;;;;;5036131;28;20613;-61
2023/10/16 14:45:23;;;;;;;5.72;5.13;;;11.80;99.90;;;;;;5036122;28;20266;-61
2023/10/16 14:47:50;;;;;;;8.75;5.35;;;11.80;99.90;;;;;;5035916;28;20635;-61
2023/10/16 14:50:16;;;;;;;5.90;4.50;;;11.70;99.90;;;;;;5018419;28;20270;-62
2023/10/16 14:52:42;;;;;;;8.50;4.55;;;11.70;99.90;;;;;;5035917;28;20226;-61
2023/10/16 14:55:08;;;;;;;10.45;5.15;;;11.70;99.90;;;;;;5018074;28;20175;-60
2023/10/16 14:57:34;;;;;;;6.85;5.15;;;11.70;99.90;;;;;;5036009;28;20175;-61
2023/10/16 15:00:00;;;;;;;6.70;5.15;;;11.60;99.90;;;;;;5035981;28;20601;-61
2023/10/16 15:02:28;;;;;;;6.18;4.82;;;11.50;99.90;;;;;;5018249;28;20186;-60
2023/10/16 15:04:54;;;;;;;7.40;5.43;;;11.50;99.90;;;;;;5035728;28;20219;-60
2023/10/16 15:07:21;;;;;;;6.47;5.25;;;11.50;99.90;;;;;;5035826;28;20172;-60
2023/10/16 15:09:48;;;;;;;9.70;5.00;;;11.50;99.90;;;;;;5017806;28;20266;-60
2023/10/16 15:12:14;;;;;;;4.88;4.38;;;11.50;99.90;;;;;;5035959;28;20472;-61